Аэропорт: Кокшетау. Кокшетау

ICAO: UACK

METAR:
2021-01-19 12:00:00
UACK 191200Z 07005MPS CAVOK M18/M20 Q1019 R20/850245 NOSIG RMK QFE740/0987
METAR:
2021-01-19 11:03:00
TAF UACK 191103Z 1912/1921 09005MPS 9999 SCT033 BKN100 TEMPO 1912/1921 VRB02MPS 4000 BR SCT010